»·PEaware :: ASA1933 KLAX-KSFO

ASA1933 :: KLAX-KSFO

FLIGHT INFORMATION

Flight Status: Arrived
Operator:
Alaska Airlines
More flights by this operator :: More flights under this callsign
Pilot: Brooks B. (6509)
Aircraft: BOEING 737-900
(B739)
More flights by this aircraft type
Origin: KLAX Los Angeles Intl
United States
Destination: KSFO San Francisco Intl
United States
More flights between these airports :: More routes between these airports
Route: +FIXIT5 RZS SERFR SERFR3
File this flight plan on PilotEdge
Remarks: PBN / A1B1C1D1S1S2 DOF / 180424 REG / N453AS EET / KZOA0026 OPR / ASA PER / D RMK / TCAS SIMBRIEF
Altitude:
(Current/Filed)
34,000ft
Speed:
(Current/Filed)
446kts
Departed: 24-Apr-18 05:02 PM
Arrived: 24-Apr-18 05:54 PM
Distance/Time
Traveled:
293nm/0:51
Distance/Time
To Go:
Arrived

Flight Plot

Page will automatically refresh every two minutes.

Flight plan parsing failed; only flown route is shown


Map Options




Map Legend


Flown Route
Filed Route
Departure Airport
Arrival Airport
Navaid (VOR, NDB)
Fix

Horizontal Profiles

Position Reports

Time Latitude Longitude Heading Altitude Ground
Speed
24-Apr-18 16:12 33.940405 -118.402599 82 134ft 0kts
24-Apr-18 16:13 33.940405 -118.402599 82 134ft 0kts
24-Apr-18 16:14 33.940405 -118.402599 82 134ft 0kts
24-Apr-18 16:15 33.940405 -118.402599 82 134ft 0kts
24-Apr-18 16:16 33.940405 -118.402599 82 134ft 0kts
24-Apr-18 16:17 33.940405 -118.402599 82 134ft 0kts
24-Apr-18 16:18 33.940405 -118.402599 82 134ft 0kts
24-Apr-18 16:19 33.940405 -118.402599 82 134ft 0kts
24-Apr-18 16:20 33.940405 -118.402599 82 134ft 0kts
24-Apr-18 16:21 33.940405 -118.402599 82 134ft 0kts
24-Apr-18 16:22 33.940405 -118.402599 82 134ft 0kts
24-Apr-18 16:23 33.940405 -118.402599 82 134ft 0kts
24-Apr-18 16:24 33.940405 -118.402599 82 134ft 0kts
24-Apr-18 16:25 33.940405 -118.402599 82 134ft 0kts
24-Apr-18 16:26 33.940405 -118.402599 82 134ft 0kts
24-Apr-18 16:27 33.940405 -118.402599 82 134ft 0kts
24-Apr-18 16:28 33.940405 -118.402599 82 134ft 0kts
24-Apr-18 16:29 33.940405 -118.402599 82 134ft 0kts
24-Apr-18 16:30 33.940405 -118.402599 82 134ft 0kts
24-Apr-18 16:31 33.940405 -118.402599 82 134ft 0kts
24-Apr-18 16:32 33.940405 -118.402599 82 134ft 0kts
24-Apr-18 16:33 33.940405 -118.402599 82 134ft 0kts
24-Apr-18 16:34 33.940405 -118.402599 82 134ft 0kts
24-Apr-18 16:35 33.940405 -118.402599 82 134ft 0kts
24-Apr-18 16:36 33.940405 -118.402599 82 134ft 0kts
24-Apr-18 16:37 33.940405 -118.402599 82 134ft 0kts
24-Apr-18 16:38 33.940405 -118.402599 82 134ft 0kts
24-Apr-18 16:39 33.940405 -118.402599 82 134ft 0kts
24-Apr-18 16:40 33.940405 -118.402599 82 134ft 0kts
24-Apr-18 16:41 33.940405 -118.402599 82 134ft 0kts
24-Apr-18 16:42 33.940405 -118.402599 82 134ft 0kts
24-Apr-18 16:43 33.940405 -118.402599 82 134ft 0kts
24-Apr-18 16:44 33.940405 -118.402599 82 134ft 0kts
24-Apr-18 16:45 33.940405 -118.402599 82 134ft 0kts
24-Apr-18 16:46 33.940405 -118.402599 82 134ft 0kts
24-Apr-18 16:47 33.940405 -118.402599 82 134ft 0kts
24-Apr-18 16:48 33.940405 -118.402599 82 134ft 0kts
24-Apr-18 16:49 33.940405 -118.402599 82 134ft 0kts
24-Apr-18 16:50 33.940367 -118.402972 82 134ft 2kts
24-Apr-18 16:51 33.940349 -118.403150 82 134ft 0kts
24-Apr-18 16:52 33.940349 -118.403149 82 134ft 0kts
24-Apr-18 16:53 33.940342 -118.403059 102 134ft 4kts
24-Apr-18 16:54 33.939904 -118.403068 204 134ft 0kts
24-Apr-18 16:55 33.938803 -118.402971 166 134ft 8kts
24-Apr-18 16:56 33.939071 -118.397115 82 134ft 18kts
24-Apr-18 16:57 33.939896 -118.389098 82 134ft 20kts
24-Apr-18 16:58 33.940446 -118.383756 83 134ft 4kts
24-Apr-18 16:59 33.940411 -118.383554 121 134ft 0kts
24-Apr-18 17:00 33.939937 -118.383375 177 134ft 10kts
24-Apr-18 17:01 33.938001 -118.397798 262 137ft 141kts
24-Apr-18 17:02 33.933116 -118.450502 259 2882ft 164kts
24-Apr-18 17:03 33.926573 -118.522033 264 4907ft 249kts
24-Apr-18 17:04 33.919390 -118.608693 264 8247ft 281kts
24-Apr-18 17:05 33.916511 -118.706803 268 11464ft 314kts
24-Apr-18 17:06 33.915124 -118.820258 267 14282ft 349kts
24-Apr-18 17:07 33.954108 -118.926948 306 17561ft 369kts
24-Apr-18 17:08 34.019342 -119.025274 305 20502ft 383kts
24-Apr-18 17:09 34.087159 -119.127794 305 22983ft 397kts
24-Apr-18 17:10 34.156961 -119.233514 305 25075ft 410kts
24-Apr-18 17:11 34.229044 -119.342413 304 26886ft 421kts
24-Apr-18 17:12 34.303023 -119.454876 304 28439ft 431kts
24-Apr-18 17:13 34.377915 -119.568818 304 30159ft 431kts
24-Apr-18 17:14 34.451925 -119.682371 303 31855ft 426kts
24-Apr-18 17:15 34.533783 -119.786075 316 33252ft 429kts
24-Apr-18 17:16 34.625759 -119.878518 316 34071ft 433kts
24-Apr-18 17:17 34.717878 -119.971517 316 34066ft 427kts
24-Apr-18 17:18 34.809513 -120.063836 316 34070ft 429kts
24-Apr-18 17:19 34.901360 -120.156142 316 34082ft 428kts
24-Apr-18 17:20 34.993224 -120.249237 316 34089ft 428kts
24-Apr-18 17:21 35.084606 -120.342278 316 34090ft 428kts
24-Apr-18 17:22 35.176185 -120.435846 316 34089ft 428kts
24-Apr-18 17:23 35.267303 -120.529230 316 34087ft 428kts
24-Apr-18 17:24 35.358504 -120.622971 316 34082ft 428kts
24-Apr-18 17:25 35.449935 -120.717201 316 34064ft 428kts
24-Apr-18 17:26 35.541056 -120.811362 315 34042ft 429kts
24-Apr-18 17:27 35.632253 -120.905848 315 34035ft 429kts
24-Apr-18 17:28 35.719717 -120.996676 315 34023ft 430kts
24-Apr-18 17:29 35.811251 -121.091601 315 34022ft 431kts
24-Apr-18 17:30 35.901701 -121.188561 315 34027ft 432kts
24-Apr-18 17:31 35.993193 -121.285422 315 34036ft 433kts
24-Apr-18 17:32 36.085585 -121.378426 322 32484ft 425kts
24-Apr-18 17:33 36.184446 -121.455436 323 30458ft 412kts
24-Apr-18 17:34 36.279883 -121.529698 323 28491ft 400kts
24-Apr-18 17:35 36.372657 -121.602469 323 26548ft 390kts
24-Apr-18 17:36 36.463325 -121.673911 323 24647ft 381kts
24-Apr-18 17:37 36.551793 -121.743588 323 22774ft 373kts
24-Apr-18 17:38 36.638316 -121.812139 323 20920ft 365kts
24-Apr-18 17:39 36.723747 -121.879670 326 19027ft 361kts
24-Apr-18 17:40 36.817455 -121.915925 344 17727ft 347kts
24-Apr-18 17:41 36.910708 -121.941460 344 15961ft 338kts
24-Apr-18 17:42 37.000550 -121.970945 339 14462ft 330kts
24-Apr-18 17:43 37.087063 -122.005468 340 13028ft 324kts
24-Apr-18 17:44 37.169970 -122.038108 341 12024ft 300kts
24-Apr-18 17:45 37.249054 -122.069165 341 10720ft 295kts
24-Apr-18 17:46 37.326740 -122.099728 341 9569ft 290kts
24-Apr-18 17:47 37.402927 -122.128660 344 8483ft 272kts
24-Apr-18 17:48 37.460083 -122.148026 343 7564ft 249kts
24-Apr-18 17:49 37.526251 -122.172131 330 5337ft 249kts
24-Apr-18 17:50 37.563380 -122.243136 296 2711ft 247kts
24-Apr-18 17:51 37.591937 -122.311189 296 848ft 174kts
24-Apr-18 17:52 37.610103 -122.354293 295 133ft 118kts
24-Apr-18 17:53 37.618604 -122.374861 292 21ft 20kts
24-Apr-18 17:54 37.618953 -122.378090 267 21ft 1kts
24-Apr-18 17:55 37.616666 -122.379635 201 21ft 13kts
24-Apr-18 17:56 37.616311 -122.382277 312 21ft 6kts
24-Apr-18 17:57 37.616770 -122.382214 20 21ft 0kts
24-Apr-18 17:58 37.616770 -122.382214 20 21ft 0kts

Navigation Log

Ident Type
Flight plan parsing failed, navigation log unavailable